Time;durP1;ratioP1;P1;durP2;ratioP2;P2;SDS_P1;SDS_P2;PMS_P1;PMS_P2;Temp;Humidity;BMP_temperature;BMP_pressure;BME280_temperature;BME280_humidity;BME280_pressure;Samples;Min_cycle;Max_cycle;Signal;HPM_P1;HPM_P2
2022/07/18 00:02:18;;;;;;;6.35;3.35;;;19.60;93.80;;;;;;5032450;28;20079;-58
2022/07/18 00:04:44;;;;;;;5.25;2.85;;;19.60;94.30;;;;;;5032695;28;20060;-58
2022/07/18 00:07:10;;;;;;;6.43;3.10;;;19.70;93.90;;;;;;5035536;28;20128;-59
2022/07/18 00:09:37;;;;;;;4.70;2.90;;;19.80;95.40;;;;;;5034832;28;20029;-59
2022/07/18 00:12:04;;;;;;;4.93;3.03;;;19.80;94.70;;;;;;5042078;28;20538;-59
2022/07/18 00:14:30;;;;;;;9.07;3.22;;;19.70;94.60;;;;;;5032530;28;20057;-56
2022/07/18 00:16:56;;;;;;;9.73;3.25;;;19.80;94.40;;;;;;5030656;28;20516;-57
2022/07/18 00:19:22;;;;;;;4.40;2.95;;;19.80;94.20;;;;;;5032505;28;20041;-59
2022/07/18 00:21:47;;;;;;;4.38;2.80;;;19.70;93.90;;;;;;5042472;28;20534;-59
2022/07/18 00:24:13;;;;;;;5.30;3.13;;;19.70;94.90;;;;;;5035943;28;20040;-59
2022/07/18 00:26:39;;;;;;;4.88;2.97;;;19.80;95.10;;;;;;5036568;28;20482;-59
2022/07/18 00:29:04;;;;;;;5.53;3.10;;;19.70;95.10;;;;;;5030718;28;20065;-59
2022/07/18 00:31:31;;;;;;;6.13;3.17;;;19.60;96.40;;;;;;5032507;28;20035;-59
2022/07/18 00:33:56;;;;;;;4.28;2.90;;;19.40;96.60;;;;;;5037862;28;20029;-59
2022/07/18 00:36:22;;;;;;;5.70;2.58;;;19.40;96.50;;;;;;5037444;28;20489;-59
2022/07/18 00:38:48;;;;;;;5.40;2.92;;;19.40;95.50;;;;;;5036813;28;20453;-59
2022/07/18 00:41:15;;;;;;;6.10;3.08;;;19.40;96.30;;;;;;5033404;28;20055;-59
2022/07/18 00:43:41;;;;;;;5.03;2.78;;;19.40;96.30;;;;;;5038638;28;20404;-59
2022/07/18 00:46:07;;;;;;;7.45;2.53;;;19.30;96.40;;;;;;5030319;28;20037;-59
2022/07/18 00:48:32;;;;;;;6.70;2.75;;;19.30;94.80;;;;;;5031668;28;20037;-59
2022/07/18 00:50:58;;;;;;;7.63;3.55;;;19.10;96.20;;;;;;5043157;28;20037;-59
2022/07/18 00:53:24;;;;;;;4.68;3.28;;;19.10;97.00;;;;;;5033524;28;20032;-59
2022/07/18 00:55:51;;;;;;;9.88;3.70;;;18.90;99.90;;;;;;5033008;28;20049;-58
2022/07/18 00:58:17;;;;;;;7.18;3.67;;;18.80;99.90;;;;;;5030247;28;20030;-58
2022/07/18 01:03:27;;;;;;;6.53;3.40;;;18.40;99.90;;;;;;5038160;28;20035;-59
2022/07/18 01:05:53;;;;;;;5.13;3.28;;;18.40;99.90;;;;;;5030343;28;20041;-59
2022/07/18 01:08:19;;;;;;;4.90;3.03;;;18.40;99.90;;;;;;5036051;28;20088;-58
2022/07/18 01:10:45;;;;;;;7.75;3.83;;;18.30;99.90;;;;;;5026843;28;20065;-58
2022/07/18 01:13:11;;;;;;;7.32;3.67;;;18.20;99.90;;;;;;5031755;28;20033;-58
2022/07/18 01:15:36;;;;;;;7.10;3.70;;;18.10;99.90;;;;;;5030977;28;20033;-58
2022/07/18 01:18:03;;;;;;;8.50;3.75;;;18.00;99.90;;;;;;5028605;28;20469;-58
2022/07/18 01:20:30;;;;;;;6.97;3.28;;;18.00;99.90;;;;;;5026496;28;20037;-58
2022/07/18 01:22:56;;;;;;;8.82;3.50;;;18.00;99.90;;;;;;5030307;28;20058;-58
2022/07/18 01:25:22;;;;;;;6.38;3.80;;;17.90;99.90;;;;;;5032992;28;20433;-60
2022/07/18 01:27:48;;;;;;;5.78;3.30;;;17.80;99.90;;;;;;5034794;28;20480;-57
2022/07/18 01:30:14;;;;;;;7.72;3.88;;;17.80;99.90;;;;;;5029665;28;20030;-58
2022/07/18 01:32:41;;;;;;;6.93;3.92;;;17.80;99.90;;;;;;5027080;28;20030;-59
2022/07/18 01:35:07;;;;;;;8.27;3.67;;;17.70;99.90;;;;;;5022364;28;20021;-59
2022/07/18 01:37:33;;;;;;;5.85;4.00;;;17.80;99.90;;;;;;5029132;28;20044;-58
2022/07/18 01:39:58;;;;;;;7.95;3.20;;;17.70;99.90;;;;;;5029325;28;20025;-59
2022/07/18 01:42:24;;;;;;;5.28;3.10;;;17.70;99.90;;;;;;5030029;28;20380;-59
2022/07/18 01:44:50;;;;;;;6.82;3.30;;;17.60;99.90;;;;;;5028842;28;20026;-60
2022/07/18 01:47:16;;;;;;;7.57;2.90;;;17.70;99.90;;;;;;5024737;28;20061;-59
2022/07/18 01:49:42;;;;;;;6.25;3.00;;;17.70;99.90;;;;;;5025354;28;20496;-58
2022/07/18 01:52:09;;;;;;;6.38;3.17;;;17.70;99.90;;;;;;5028531;28;20033;-57
2022/07/18 01:54:37;;;;;;;4.65;3.28;;;17.70;99.90;;;;;;5038679;28;20029;-57
2022/07/18 01:57:06;;;;;;;7.47;3.35;;;17.80;99.90;;;;;;5032338;28;20037;-57
2022/07/18 01:59:32;;;;;;;6.60;3.47;;;17.80;99.90;;;;;;5030296;28;20095;-57
2022/07/18 02:01:58;;;;;;;5.13;3.00;;;17.80;99.90;;;;;;5030235;28;20453;-57
2022/07/18 02:04:59;;;;;;;5.80;3.42;;;17.80;99.90;;;;;;5031854;28;20071;-57
2022/07/18 02:07:10;;;;;;;4.80;3.03;;;17.70;99.90;;;;;;5022462;28;20677;-58
2022/07/18 02:09:35;;;;;;;7.72;3.65;;;17.80;99.90;;;;;;5034022;28;20112;-57
2022/07/18 02:12:01;;;;;;;6.97;3.40;;;17.80;99.90;;;;;;5032147;28;20477;-57
2022/07/18 02:14:27;;;;;;;4.95;2.90;;;17.60;99.90;;;;;;5038177;28;20033;-57
2022/07/18 02:16:52;;;;;;;6.15;3.22;;;17.60;99.90;;;;;;5028507;28;20041;-57
2022/07/18 02:19:18;;;;;;;5.07;3.28;;;17.70;99.90;;;;;;5030087;28;20084;-57
2022/07/18 02:21:43;;;;;;;4.05;2.95;;;17.70;99.90;;;;;;5031787;28;20377;-57
2022/07/18 02:24:09;;;;;;;7.10;3.05;;;17.70;99.90;;;;;;5029377;28;20462;-57
2022/07/18 02:26:35;;;;;;;5.45;2.83;;;17.70;99.90;;;;;;5025822;28;20049;-58
2022/07/18 02:29:00;;;;;;;6.07;2.80;;;17.70;99.90;;;;;;5033672;28;20029;-57
2022/07/18 02:31:26;;;;;;;5.05;3.10;;;17.70;99.90;;;;;;5030835;28;20059;-57
2022/07/18 02:33:52;;;;;;;5.32;3.10;;;17.70;99.90;;;;;;5031641;28;20029;-58
2022/07/18 02:36:18;;;;;;;4.50;2.95;;;17.60;99.90;;;;;;5029829;28;20488;-57
2022/07/18 02:38:43;;;;;;;5.03;3.47;;;17.70;99.90;;;;;;5036149;28;20021;-57
2022/07/18 02:41:09;;;;;;;4.38;3.08;;;17.70;99.90;;;;;;5027507;28;20453;-57
2022/07/18 02:43:35;;;;;;;9.13;3.58;;;17.70;99.90;;;;;;5027942;28;20057;-57
2022/07/18 02:46:00;;;;;;;5.28;3.10;;;17.80;99.90;;;;;;5028660;28;20040;-58
2022/07/18 02:48:26;;;;;;;3.90;2.88;;;17.80;99.90;;;;;;5029797;28;20076;-58
2022/07/18 02:50:52;;;;;;;4.85;2.70;;;17.80;99.90;;;;;;5036168;28;20029;-58
2022/07/18 02:53:19;;;;;;;4.50;3.03;;;17.80;99.90;;;;;;5026768;28;20060;-58
2022/07/18 02:55:44;;;;;;;7.85;2.92;;;17.80;99.90;;;;;;5033319;28;20064;-57
2022/07/18 02:58:10;;;;;;;8.70;4.18;;;17.90;99.90;;;;;;5029548;28;20050;-57
2022/07/18 03:00:36;;;;;;;4.90;3.20;;;17.90;99.90;;;;;;5024333;28;20493;-57
2022/07/18 03:03:01;;;;;;;7.20;2.97;;;18.00;99.90;;;;;;5031533;28;20030;-57
2022/07/18 03:05:27;;;;;;;4.03;2.50;;;18.00;99.90;;;;;;5031043;28;21684;-57
2022/07/18 03:07:53;;;;;;;5.93;3.20;;;18.00;99.90;;;;;;5026905;28;20029;-59
2022/07/18 03:10:18;;;;;;;7.57;3.05;;;18.00;99.90;;;;;;5031302;28;20104;-58
2022/07/18 03:12:44;;;;;;;9.98;3.03;;;18.10;99.90;;;;;;5037033;28;20060;-57
2022/07/18 03:15:10;;;;;;;4.65;2.92;;;18.20;99.90;;;;;;5027617;28;20036;-57
2022/07/18 03:17:36;;;;;;;7.40;3.33;;;18.20;99.90;;;;;;5029664;28;20037;-58
2022/07/18 03:20:03;;;;;;;4.75;3.22;;;18.20;99.90;;;;;;5039326;28;20068;-58
2022/07/18 03:22:28;;;;;;;4.50;2.78;;;18.10;99.90;;;;;;5037833;28;20053;-58
2022/07/18 03:24:54;;;;;;;7.07;3.60;;;18.10;99.90;;;;;;5036869;28;20018;-58
2022/07/18 03:27:20;;;;;;;5.13;3.00;;;18.00;99.90;;;;;;5040670;28;20033;-58
2022/07/18 03:29:45;;;;;;;5.00;2.97;;;17.90;99.90;;;;;;5040264;28;20033;-58
2022/07/18 03:32:11;;;;;;;4.22;2.90;;;18.00;99.90;;;;;;5034053;28;20051;-58
2022/07/18 03:34:37;;;;;;;6.82;2.58;;;17.90;99.90;;;;;;5038567;28;20118;-59
2022/07/18 03:37:02;;;;;;;5.85;2.75;;;17.80;99.90;;;;;;5040169;28;20156;-58
2022/07/18 03:39:28;;;;;;;4.93;2.83;;;17.70;99.90;;;;;;5034502;28;20021;-58
2022/07/18 03:41:54;;;;;;;4.40;3.03;;;17.60;99.90;;;;;;5037567;28;20112;-58
2022/07/18 03:44:19;;;;;;;6.60;2.78;;;17.60;99.90;;;;;;5034986;28;20034;-57
2022/07/18 03:46:45;;;;;;;5.40;3.17;;;17.60;99.90;;;;;;5035439;28;20053;-57
2022/07/18 03:49:11;;;;;;;6.70;3.03;;;17.60;99.90;;;;;;5034762;28;20039;-57
2022/07/18 03:51:36;;;;;;;4.75;2.72;;;17.60;99.90;;;;;;5040424;28;20120;-58
2022/07/18 03:54:02;;;;;;;5.65;3.10;;;17.40;99.90;;;;;;5038680;28;20052;-57
2022/07/18 03:56:28;;;;;;;7.05;3.80;;;17.30;99.90;;;;;;5033538;28;20099;-59
2022/07/18 03:58:53;;;;;;;7.57;3.47;;;17.20;99.90;;;;;;5040836;28;20060;-58
2022/07/18 04:01:19;;;;;;;4.00;2.72;;;17.10;99.90;;;;;;5037888;28;20065;-57
2022/07/18 04:03:45;;;;;;;3.88;2.45;;;17.00;99.90;;;;;;5040799;28;20031;-58
2022/07/18 04:06:11;;;;;;;6.53;3.25;;;17.00;99.90;;;;;;5035174;28;20045;-58
2022/07/18 04:08:36;;;;;;;5.80;2.92;;;16.90;99.90;;;;;;5034694;28;20108;-57
2022/07/18 04:11:02;;;;;;;6.10;3.40;;;16.80;99.90;;;;;;5033031;28;20035;-57
2022/07/18 04:13:28;;;;;;;4.97;3.22;;;16.70;99.90;;;;;;5037770;28;20104;-57
2022/07/18 04:15:53;;;;;;;6.40;4.20;;;16.60;99.90;;;;;;5033514;28;20060;-57
2022/07/18 04:18:19;;;;;;;7.53;3.67;;;16.60;99.90;;;;;;5029221;28;20121;-57
2022/07/18 04:20:45;;;;;;;6.07;2.90;;;16.60;99.90;;;;;;5038705;28;20253;-57
2022/07/18 04:23:10;;;;;;;4.40;2.50;;;16.60;99.90;;;;;;5031416;28;20461;-57
2022/07/18 04:25:38;;;;;;;4.60;2.58;;;16.60;99.90;;;;;;5033554;28;20037;-57
2022/07/18 04:28:05;;;;;;;6.70;2.65;;;16.50;99.90;;;;;;5035888;28;20076;-59
2022/07/18 04:30:32;;;;;;;6.85;2.90;;;16.50;99.90;;;;;;5042012;28;20025;-58
2022/07/18 04:33:02;;;;;;;6.15;2.92;;;16.70;99.90;;;;;;5037406;28;20508;-59
2022/07/18 04:35:27;;;;;;;8.13;2.70;;;16.70;99.90;;;;;;5041324;28;20028;-58
2022/07/18 04:37:53;;;;;;;7.95;2.45;;;16.70;99.90;;;;;;5040485;28;20174;-59
2022/07/18 04:40:19;;;;;;;5.45;2.17;;;16.70;99.90;;;;;;5037432;28;20028;-59
2022/07/18 04:42:46;;;;;;;5.13;2.50;;;16.60;99.90;;;;;;5035529;28;20045;-58
2022/07/18 04:45:12;;;;;;;11.57;3.15;;;16.60;99.90;;;;;;5041588;28;20102;-59
2022/07/18 04:47:38;;;;;;;6.88;2.72;;;16.70;99.90;;;;;;5033969;28;20033;-58
2022/07/18 04:50:05;;;;;;;6.05;2.95;;;16.80;99.90;;;;;;5036965;28;20484;-59
2022/07/18 04:52:42;;;;;;;3.42;2.85;;;16.80;99.90;;;;;;5037097;28;20025;-59
2022/07/18 04:55:09;;;;;;;6.35;2.70;;;16.80;99.90;;;;;;5039319;28;20044;-59
2022/07/18 04:57:35;;;;;;;4.72;2.88;;;16.80;99.90;;;;;;5035758;28;20104;-59
2022/07/18 05:00:06;;;;;;;6.13;2.80;;;16.90;99.90;;;;;;5029389;28;20093;-58
2022/07/18 05:02:32;;;;;;;6.28;3.05;;;16.90;99.90;;;;;;5038900;28;20366;-58
2022/07/18 05:04:57;;;;;;;6.10;2.90;;;16.90;99.90;;;;;;5034484;28;20060;-58
2022/07/18 05:07:23;;;;;;;7.43;3.00;;;16.90;99.90;;;;;;5039492;28;20048;-58
2022/07/18 05:09:49;;;;;;;3.67;2.45;;;17.00;99.90;;;;;;5031270;28;20490;-58
2022/07/18 05:12:14;;;;;;;7.75;2.70;;;17.00;99.90;;;;;;5032483;28;20092;-58
2022/07/18 05:14:40;;;;;;;7.13;2.90;;;17.10;99.90;;;;;;5037008;28;20022;-59
2022/07/18 05:17:05;;;;;;;4.65;2.33;;;17.20;99.90;;;;;;5030150;28;20038;-59
2022/07/18 05:19:31;;;;;;;13.27;3.78;;;17.30;99.90;;;;;;5037086;28;20034;-58
2022/07/18 05:21:57;;;;;;;6.88;3.38;;;17.30;99.90;;;;;;5028991;28;20094;-59
2022/07/18 05:24:22;;;;;;;9.05;3.97;;;17.40;99.90;;;;;;5032478;28;20381;-58
2022/07/18 05:26:48;;;;;;;4.72;2.67;;;17.50;99.90;;;;;;5034058;28;20037;-57
2022/07/18 05:29:14;;;;;;;6.75;2.50;;;17.60;99.90;;;;;;5029066;28;20041;-58
2022/07/18 05:31:40;;;;;;;5.95;2.53;;;17.70;99.90;;;;;;5034468;28;20064;-58
2022/07/18 05:34:06;;;;;;;4.95;2.90;;;17.90;99.90;;;;;;5024867;28;20548;-58
2022/07/18 05:36:32;;;;;;;6.38;3.50;;;18.10;99.90;;;;;;5030378;28;20112;-57
2022/07/18 05:38:57;;;;;;;8.18;3.40;;;18.30;99.90;;;;;;5031338;28;20032;-58
2022/07/18 05:41:23;;;;;;;5.05;2.47;;;18.40;99.90;;;;;;5030280;28;20040;-58
2022/07/18 05:43:49;;;;;;;7.25;3.17;;;18.60;99.90;;;;;;5029833;28;20028;-58
2022/07/18 05:46:15;;;;;;;5.82;3.15;;;18.60;99.90;;;;;;5036547;28;20139;-59
2022/07/18 05:48:41;;;;;;;7.50;3.70;;;18.60;99.90;;;;;;5029859;28;20029;-58
2022/07/18 05:51:07;;;;;;;8.27;3.75;;;18.70;99.90;;;;;;5022422;28;20053;-58
2022/07/18 05:53:33;;;;;;;10.68;3.83;;;18.80;99.90;;;;;;5030540;28;20158;-58
2022/07/18 05:55:58;;;;;;;9.55;3.72;;;18.80;99.90;;;;;;5033108;28;20137;-59
2022/07/18 05:58:24;;;;;;;6.70;2.92;;;18.80;99.90;;;;;;5038965;28;20032;-58
2022/07/18 06:00:50;;;;;;;7.65;3.83;;;18.80;99.90;;;;;;5030302;28;20469;-59
2022/07/18 06:03:15;;;;;;;7.30;2.97;;;18.90;99.90;;;;;;5027627;28;20026;-58
2022/07/18 06:05:41;;;;;;;5.43;3.53;;;18.90;99.90;;;;;;5033829;28;20977;-59
2022/07/18 06:08:07;;;;;;;7.03;3.63;;;18.90;99.90;;;;;;5021826;28;20108;-62
2022/07/18 06:10:33;;;;;;;7.10;3.67;;;19.00;99.90;;;;;;5033457;28;20051;-58
2022/07/18 06:12:58;;;;;;;6.85;3.35;;;19.10;99.90;;;;;;5035956;28;20037;-58
2022/07/18 06:15:24;;;;;;;5.68;3.35;;;19.20;99.90;;;;;;5038781;28;20078;-58
2022/07/18 06:17:51;;;;;;;9.15;3.60;;;19.30;99.90;;;;;;5037533;28;20392;-59
2022/07/18 06:20:17;;;;;;;8.27;4.47;;;19.50;99.90;;;;;;5031588;28;20025;-59
2022/07/18 06:22:43;;;;;;;7.78;3.50;;;19.60;99.90;;;;;;5031959;28;20080;-59
2022/07/18 06:25:09;;;;;;;8.68;3.22;;;19.80;99.90;;;;;;5036658;28;20025;-61
2022/07/18 06:27:38;;;;;;;6.72;3.28;;;19.80;99.90;;;;;;5031172;28;20132;-59
2022/07/18 06:30:04;;;;;;;7.05;3.33;;;19.80;99.90;;;;;;5032276;28;20105;-59
2022/07/18 06:32:30;;;;;;;7.30;2.92;;;19.80;99.90;;;;;;5032538;28;20045;-59
2022/07/18 06:34:56;;;;;;;4.85;2.38;;;19.80;99.90;;;;;;5031922;28;20174;-59
2022/07/18 06:37:21;;;;;;;3.88;2.40;;;19.80;99.90;;;;;;5037342;28;20038;-59
2022/07/18 06:39:47;;;;;;;5.22;2.72;;;19.80;99.90;;;;;;5030221;28;20036;-58
2022/07/18 06:42:13;;;;;;;4.47;2.40;;;19.80;99.90;;;;;;5015645;28;20110;-59
2022/07/18 06:44:39;;;;;;;5.45;2.45;;;19.80;99.90;;;;;;5029531;28;20373;-59
2022/07/18 06:47:04;;;;;;;11.00;2.47;;;19.80;99.90;;;;;;5027145;28;20069;-59
2022/07/18 06:49:30;;;;;;;8.57;2.85;;;19.80;99.90;;;;;;5035883;28;20070;-59
2022/07/18 06:51:56;;;;;;;6.20;2.88;;;19.90;99.90;;;;;;5033421;28;20037;-59
2022/07/18 06:54:27;;;;;;;4.97;2.53;;;20.10;99.90;;;;;;5030970;28;20476;-59
2022/07/18 06:56:54;;;;;;;18.73;2.63;;;20.20;99.90;;;;;;5022612;28;20030;-59
2022/07/18 06:59:19;;;;;;;8.45;2.50;;;20.20;99.90;;;;;;5033431;28;20064;-59
2022/07/18 07:01:45;;;;;;;5.05;2.55;;;20.40;99.90;;;;;;5027564;28;20061;-58
2022/07/18 07:04:11;;;;;;;9.27;2.25;;;20.50;99.90;;;;;;5034899;28;20029;-60
2022/07/18 07:06:38;;;;;;;5.70;2.30;;;20.60;99.90;;;;;;5024035;28;20044;-59
2022/07/18 07:09:04;;;;;;;6.20;3.08;;;20.70;99.90;;;;;;5022606;28;20033;-59
2022/07/18 07:11:30;;;;;;;4.50;1.90;;;20.80;99.90;;;;;;5032491;28;20079;-59
2022/07/18 07:13:55;;;;;;;5.15;1.90;;;21.00;99.90;;;;;;5037642;28;20083;-59
2022/07/18 07:16:21;;;;;;;3.55;1.85;;;21.10;99.90;;;;;;5041384;28;20025;-59
2022/07/18 07:18:46;;;;;;;6.97;2.35;;;21.30;99.90;;;;;;5035670;28;20108;-59
2022/07/18 07:21:12;;;;;;;7.05;1.90;;;21.40;99.90;;;;;;5033679;28;20033;-59
2022/07/18 07:23:38;;;;;;;4.13;2.38;;;21.50;99.90;;;;;;5036720;28;20052;-58
2022/07/18 07:26:04;;;;;;;7.95;1.98;;;21.70;99.90;;;;;;5038262;28;20186;-58
2022/07/18 07:28:30;;;;;;;6.78;2.08;;;21.90;99.90;;;;;;5043326;28;20025;-58
2022/07/18 07:30:55;;;;;;;5.85;1.85;;;22.00;99.90;;;;;;5037327;28;20040;-59
2022/07/18 07:33:21;;;;;;;5.93;1.73;;;22.00;99.90;;;;;;5024616;28;20084;-58
2022/07/18 07:35:47;;;;;;;5.47;1.95;;;22.20;99.90;;;;;;5029259;28;20216;-59
2022/07/18 07:38:18;;;;;;;3.95;1.90;;;22.30;99.90;;;;;;5034047;28;20086;-61
2022/07/18 07:40:44;;;;;;;6.07;2.07;;;22.40;99.90;;;;;;5029149;28;20495;-60
2022/07/18 07:43:12;;;;;;;7.40;1.98;;;22.50;99.90;;;;;;5023193;28;20059;-59
2022/07/18 07:45:38;;;;;;;5.93;2.47;;;22.50;99.90;;;;;;5028708;28;20075;-59
2022/07/18 07:48:05;;;;;;;4.07;1.48;;;22.60;99.90;;;;;;5030134;28;20021;-59
2022/07/18 07:50:31;;;;;;;4.85;1.40;;;22.60;99.90;;;;;;5026803;28;20075;-60
2022/07/18 07:52:58;;;;;;;11.20;2.33;;;22.60;99.90;;;;;;5035754;28;20053;-60
2022/07/18 07:55:24;;;;;;;9.38;2.55;;;22.70;99.90;;;;;;5032294;28;20091;-60
2022/07/18 07:57:49;;;;;;;10.73;1.75;;;22.80;99.90;;;;;;5025419;28;20489;-59
2022/07/18 08:00:15;;;;;;;5.88;2.08;;;22.90;99.90;;;;;;5028845;28;20036;-59
2022/07/18 08:02:57;;;;;;;3.47;2.00;;;23.10;99.90;;;;;;5031746;28;20060;-59
2022/07/18 08:05:23;;;;;;;3.72;2.00;;;23.40;99.90;;;;;;5022463;28;20041;-59
2022/07/18 08:07:49;;;;;;;5.97;1.70;;;23.50;99.90;;;;;;5034542;28;20034;-59
2022/07/18 08:10:15;;;;;;;5.70;2.00;;;23.80;99.40;;;;;;5035640;28;20030;-59
2022/07/18 08:12:41;;;;;;;7.90;1.92;;;23.90;99.90;;;;;;5037797;28;20037;-59
2022/07/18 08:15:08;;;;;;;8.38;1.40;;;23.90;99.20;;;;;;5032955;28;20028;-59
2022/07/18 08:17:34;;;;;;;6.80;1.70;;;24.00;99.80;;;;;;5031098;28;20083;-59
2022/07/18 08:20:00;;;;;;;3.92;1.58;;;24.00;98.80;;;;;;5032273;28;20033;-58
2022/07/18 08:22:26;;;;;;;6.32;1.73;;;24.20;97.00;;;;;;5030946;28;20049;-58
2022/07/18 08:24:52;;;;;;;5.82;1.80;;;24.30;97.60;;;;;;5029302;28;20381;-59
2022/07/18 08:27:17;;;;;;;5.20;1.33;;;24.40;97.70;;;;;;5025296;28;20480;-58
2022/07/18 08:29:43;;;;;;;5.47;2.22;;;24.40;96.00;;;;;;5033197;28;20439;-59
2022/07/18 08:32:09;;;;;;;8.43;1.60;;;24.60;95.70;;;;;;5028691;28;20037;-59
2022/07/18 08:34:34;;;;;;;4.82;1.33;;;24.80;94.40;;;;;;5032582;28;20516;-59
2022/07/18 08:37:00;;;;;;;6.53;1.70;;;25.00;92.40;;;;;;5037033;28;20508;-59
2022/07/18 08:39:26;;;;;;;4.07;1.70;;;25.20;91.90;;;;;;5030711;28;20030;-60
2022/07/18 08:41:52;;;;;;;5.60;1.77;;;25.20;92.00;;;;;;5027098;28;20064;-58
2022/07/18 08:44:18;;;;;;;2.42;1.70;;;25.40;91.00;;;;;;5029815;28;20354;-59
2022/07/18 08:46:49;;;;;;;3.85;1.40;;;25.40;92.10;;;;;;5033084;28;20040;-59
2022/07/18 08:49:15;;;;;;;4.95;1.50;;;25.30;89.80;;;;;;5028804;28;20022;-60
2022/07/18 08:51:43;;;;;;;6.18;1.38;;;25.40;90.10;;;;;;5034142;28;20033;-59
2022/07/18 08:54:09;;;;;;;4.90;1.65;;;25.60;90.10;;;;;;5039517;28;20026;-60
2022/07/18 08:56:35;;;;;;;4.63;1.77;;;25.80;87.70;;;;;;5024779;28;20117;-60
2022/07/18 08:59:02;;;;;;;3.28;1.67;;;25.70;88.50;;;;;;5037411;28;20104;-60
2022/07/18 09:01:29;;;;;;;2.95;1.42;;;25.70;90.80;;;;;;5040280;28;20468;-60
2022/07/18 09:06:47;;;;;;;4.40;1.20;;;25.80;88.10;;;;;;5034332;28;20141;-59
2022/07/18 09:09:14;;;;;;;5.18;1.23;;;25.90;79.10;;;;;;5032288;28;20122;-59
2022/07/18 09:11:50;;;;;;;4.80;1.90;;;26.20;81.00;;;;;;5034660;28;20030;-59
2022/07/18 09:14:39;;;;;;;4.57;1.73;;;26.50;77.20;;;;;;5029042;28;20032;-59
2022/07/18 09:17:12;;;;;;;3.75;1.90;;;26.80;73.60;;;;;;5034125;28;20067;-60
2022/07/18 09:19:55;;;;;;;4.28;1.50;;;27.00;80.10;;;;;;5031635;28;20029;-59
2022/07/18 09:22:22;;;;;;;7.38;1.70;;;27.10;73.00;;;;;;5035321;28;20044;-59
2022/07/18 09:24:52;;;;;;;3.38;1.17;;;27.20;71.40;;;;;;5035983;28;20073;-58
2022/07/18 09:27:28;;;;;;;7.85;1.35;;;27.40;71.40;;;;;;5033013;28;20083;-60
2022/07/18 09:30:20;;;;;;;6.38;2.35;;;27.50;69.00;;;;;;5028569;28;20121;-60
2022/07/18 09:32:51;;;;;;;;;;;27.60;66.60;;;;;;5031552;28;20053;-60
2022/07/18 09:35:21;;;;;;;2.53;1.58;;;27.80;65.40;;;;;;5030198;28;20242;-59
2022/07/18 09:38:07;;;;;;;6.45;1.45;;;27.90;64.00;;;;;;5030635;28;20033;-59
2022/07/18 09:40:48;;;;;;;5.45;1.42;;;27.90;59.30;;;;;;5030021;28;20033;-59
2022/07/18 09:43:16;;;;;;;1.58;1.00;;;27.90;58.30;;;;;;5020310;28;20021;-59
2022/07/18 09:45:47;;;;;;;3.55;1.30;;;27.90;56.10;;;;;;5030110;28;20028;-59
2022/07/18 09:48:18;;;;;;;8.07;1.73;;;27.80;56.90;;;;;;5025646;28;20053;-59
2022/07/18 09:50:59;;;;;;;2.80;1.85;;;27.90;55.70;;;;;;5032566;28;22195;-60
2022/07/18 09:53:37;;;;;;;3.47;1.40;;;28.00;57.00;;;;;;5030810;28;20029;-59
2022/07/18 09:56:04;;;;;;;3.97;1.35;;;28.10;55.40;;;;;;5033498;28;20135;-58
2022/07/18 09:58:36;;;;;;;1.95;1.13;;;28.30;54.10;;;;;;5029082;28;20032;-59
2022/07/18 10:01:04;;;;;;;1.73;1.10;;;28.30;54.10;;;;;;5029113;28;20036;-59
2022/07/18 10:03:30;;;;;;;5.78;1.98;;;28.40;52.50;;;;;;5039612;28;20501;-59
2022/07/18 10:05:58;;;;;;;4.07;1.20;;;28.60;50.60;;;;;;5027766;28;20066;-58
2022/07/18 10:08:26;;;;;;;6.40;2.00;;;28.50;48.90;;;;;;5039173;28;20029;-58
2022/07/18 10:10:53;;;;;;;2.58;1.05;;;28.60;49.90;;;;;;5029834;28;20116;-58
2022/07/18 10:13:21;;;;;;;7.10;1.17;;;28.70;49.50;;;;;;5032828;28;20041;-59
2022/07/18 10:15:50;;;;;;;4.40;1.17;;;28.80;49.00;;;;;;5031715;28;20481;-59
2022/07/18 10:18:18;;;;;;;5.75;1.65;;;28.90;48.50;;;;;;5034242;28;20021;-59
2022/07/18 10:21:06;;;;;;;2.70;1.25;;;28.90;48.30;;;;;;5030990;28;20151;-58
2022/07/18 10:23:34;;;;;;;4.35;1.20;;;29.20;47.40;;;;;;5026905;28;20464;-59
2022/07/18 10:26:21;;;;;;;4.65;1.50;;;29.20;46.40;;;;;;5033383;28;20040;-59
2022/07/18 10:28:56;;;;;;;4.55;1.20;;;29.00;46.90;;;;;;5030534;28;20571;-59
2022/07/18 10:31:23;;;;;;;2.70;1.20;;;29.10;47.60;;;;;;5033571;28;20083;-59
2022/07/18 10:33:49;;;;;;;3.55;0.95;;;29.00;47.00;;;;;;5031670;28;20026;-59
2022/07/18 10:36:17;;;;;;;6.63;1.73;;;29.20;46.80;;;;;;5039827;28;20032;-59
2022/07/18 10:39:12;;;;;;;7.35;1.58;;;29.40;48.40;;;;;;5033531;28;20021;-59
2022/07/18 10:41:41;;;;;;;6.45;1.60;;;29.60;48.00;;;;;;5023227;28;20034;-59
2022/07/18 10:44:25;;;;;;;4.68;1.70;;;29.80;48.00;;;;;;5032494;28;20029;-58
2022/07/18 10:47:02;;;;;;;7.45;1.80;;;29.90;47.50;;;;;;5030802;28;20045;-59
2022/07/18 10:49:49;;;;;;;4.07;1.30;;;29.90;47.70;;;;;;5036389;28;20025;-59
2022/07/18 10:52:27;;;;;;;8.13;2.17;;;30.10;47.40;;;;;;5032540;28;20060;-58
2022/07/18 10:55:05;;;;;;;6.78;1.70;;;30.40;47.60;;;;;;5027798;28;20497;-58
2022/07/18 10:57:34;;;;;;;8.10;1.55;;;30.50;47.40;;;;;;5033044;28;20388;-60
2022/07/18 11:00:09;;;;;;;6.20;1.52;;;30.40;45.70;;;;;;5034577;28;20039;-59
2022/07/18 11:03:03;;;;;;;2.25;1.50;;;30.50;46.40;;;;;;5031964;28;20034;-59
2022/07/18 11:05:28;;;;;;;4.50;1.60;;;30.40;44.20;;;;;;5022282;28;20028;-58
2022/07/18 11:08:03;;;;;;;5.50;1.65;;;30.40;45.10;;;;;;5031593;28;20037;-57
2022/07/18 11:10:41;;;;;;;6.07;1.40;;;30.80;42.60;;;;;;5036057;28;20025;-59
2022/07/18 11:13:28;;;;;;;5.00;1.13;;;31.30;42.70;;;;;;5027458;28;20026;-58
2022/07/18 11:16:07;;;;;;;5.93;2.00;;;31.60;40.10;;;;;;5028688;28;20374;-58
2022/07/18 11:18:46;;;;;;;6.35;1.65;;;31.90;39.80;;;;;;5028897;28;20060;-58
2022/07/18 11:21:25;;;;;;;4.22;1.77;;;32.00;38.90;;;;;;5029767;28;20527;-59
2022/07/18 11:24:08;;;;;;;4.57;1.20;;;32.00;38.80;;;;;;5040140;28;20412;-59
2022/07/18 11:26:42;;;;;;;4.22;1.55;;;31.80;37.70;;;;;;5022596;28;20163;-59
2022/07/18 11:29:10;;;;;;;6.07;1.80;;;32.30;38.10;;;;;;5029377;28;20037;-59
2022/07/18 11:31:54;;;;;;;5.40;1.70;;;32.40;37.10;;;;;;5027120;28;20105;-59
2022/07/18 11:34:23;;;;;;;4.72;1.17;;;32.70;36.90;;;;;;5023188;28;20038;-60
2022/07/18 11:36:50;;;;;;;13.70;2.15;;;32.80;36.20;;;;;;5027037;28;20464;-60
2022/07/18 11:39:30;;;;;;;4.32;1.15;;;33.50;35.70;;;;;;5029147;28;20536;-60
2022/07/18 11:41:56;;;;;;;3.30;1.30;;;33.30;34.90;;;;;;5023504;28;20045;-60
2022/07/18 11:44:26;;;;;;;3.00;1.70;;;33.40;35.30;;;;;;5035848;28;20052;-59
2022/07/18 11:47:02;;;;;;;8.20;1.58;;;33.60;34.60;;;;;;5039948;28;20040;-58
2022/07/18 11:49:27;;;;;;;9.98;1.58;;;33.90;34.20;;;;;;5029424;28;20033;-59
2022/07/18 11:51:53;;;;;;;3.38;1.35;;;34.00;33.80;;;;;;5030022;28;20033;-58
2022/07/18 11:54:24;;;;;;;6.72;1.40;;;34.20;33.40;;;;;;5029308;28;20034;-59
2022/07/18 11:56:53;;;;;;;4.23;1.30;;;34.10;33.40;;;;;;5029800;28;20595;-58
2022/07/18 11:59:19;;;;;;;2.60;1.33;;;34.50;33.10;;;;;;5035739;28;20030;-60
2022/07/18 12:01:45;;;;;;;4.20;1.40;;;34.20;32.80;;;;;;5031011;28;20017;-59
2022/07/18 12:04:22;;;;;;;2.75;1.30;;;34.20;32.40;;;;;;5028761;28;20444;-59
2022/07/18 12:07:12;;;;;;;5.45;1.23;;;34.70;32.00;;;;;;5037034;28;20045;-59
2022/07/18 12:09:38;;;;;;;3.42;1.65;;;34.30;32.40;;;;;;5029292;28;20029;-60
2022/07/18 12:12:14;;;;;;;4.32;1.20;;;34.50;32.20;;;;;;5031295;28;20030;-60
2022/07/18 12:14:40;;;;;;;3.10;1.30;;;34.90;32.20;;;;;;5030035;28;20025;-60
2022/07/18 12:17:06;;;;;;;4.45;1.80;;;34.70;32.10;;;;;;5029425;28;20765;-60
2022/07/18 12:19:39;;;;;;;5.70;1.48;;;34.90;32.00;;;;;;5030114;28;20029;-60
2022/07/18 12:22:09;;;;;;;3.42;1.58;;;35.50;31.30;;;;;;5022925;28;20025;-60
2022/07/18 12:24:38;;;;;;;6.50;1.38;;;35.10;31.10;;;;;;5036512;28;20044;-60
2022/07/18 12:27:16;;;;;;;3.30;1.30;;;34.70;31.30;;;;;;5031157;28;20052;-60
2022/07/18 12:30:02;;;;;;;4.18;1.20;;;35.00;31.10;;;;;;5032120;28;20120;-60
2022/07/18 12:32:29;;;;;;;7.50;1.30;;;35.10;31.00;;;;;;5030775;28;20180;-60
2022/07/18 12:35:00;;;;;;;3.28;1.75;;;35.20;30.50;;;;;;5025934;28;20032;-58
2022/07/18 12:37:29;;;;;;;5.32;1.60;;;35.00;31.00;;;;;;5032415;28;20045;-59
2022/07/18 12:39:59;;;;;;;7.13;1.58;;;35.20;31.80;;;;;;5030988;28;20029;-59
2022/07/18 12:43:01;;;;;;;2.80;1.45;;;35.80;31.30;;;;;;5021325;28;20119;-58
2022/07/18 12:45:26;;;;;;;7.28;1.58;;;35.90;30.10;;;;;;5025421;28;20030;-59
2022/07/18 12:47:52;;;;;;;3.75;1.70;;;36.20;30.60;;;;;;5029079;28;20042;-59
2022/07/18 12:50:18;;;;;;;10.02;1.92;;;36.30;30.00;;;;;;5028778;28;20025;-59
2022/07/18 12:52:43;;;;;;;3.30;1.42;;;36.60;30.20;;;;;;5038870;28;20509;-58
2022/07/18 12:55:09;;;;;;;6.57;1.52;;;36.80;30.40;;;;;;5037471;28;20033;-58
2022/07/18 12:57:35;;;;;;;4.03;1.50;;;37.00;30.00;;;;;;5033208;28;20030;-58
2022/07/18 13:00:01;;;;;;;2.55;1.52;;;36.70;29.40;;;;;;5030052;28;20037;-60